createdAt,value
2017-07-12T00:00:20.420Z,1012.9
2017-07-12T00:01:19.995Z,1012.9
2017-07-12T00:02:19.366Z,1012.9
2017-07-12T00:02:49.736Z,1012.9
2017-07-12T00:03:20.108Z,1012.9
2017-07-12T00:04:17.662Z,1012.9
2017-07-12T00:05:17.225Z,1012.9
2017-07-12T00:06:16.556Z,1012.9
2017-07-12T00:08:15.200Z,1012.8
2017-07-12T00:09:14.654Z,1012.8
2017-07-12T00:10:13.494Z,1012.8
2017-07-12T00:11:13.068Z,1012.7
2017-07-12T00:12:12.131Z,1012.8
2017-07-12T00:13:11.836Z,1012.7
2017-07-12T00:14:11.149Z,1012.7
2017-07-12T00:15:10.096Z,1012.8
2017-07-12T00:16:09.524Z,1012.7
2017-07-12T00:17:08.719Z,1012.6
2017-07-12T00:18:08.157Z,1012.7
2017-07-12T00:19:07.454Z,1012.6
2017-07-12T00:20:06.643Z,1012.6
2017-07-12T00:21:06.344Z,1012.6
2017-07-12T00:22:05.547Z,1012.6
2017-07-12T00:23:04.604Z,1012.6
2017-07-12T00:24:04.175Z,1012.6
2017-07-12T00:25:03.493Z,1012.6
2017-07-12T00:26:02.828Z,1012.6
2017-07-12T00:27:02.085Z,1012.6
2017-07-12T00:28:01.278Z,1012.7
2017-07-12T00:29:00.870Z,1012.7
2017-07-12T00:30:00.187Z,1012.7
2017-07-12T00:30:59.116Z,1012.7
2017-07-12T00:31:58.692Z,1012.7
2017-07-12T00:32:57.899Z,1012.7
2017-07-12T00:33:57.090Z,1012.7
2017-07-12T00:34:56.787Z,1012.6
2017-07-12T00:35:55.749Z,1012.7
2017-07-12T00:36:55.449Z,1012.7
2017-07-12T00:37:54.764Z,1012.7
2017-07-12T00:38:53.968Z,1012.7
2017-07-12T00:39:53.286Z,1012.7
2017-07-12T00:40:52.604Z,1012.7
2017-07-12T00:41:51.802Z,1012.7
2017-07-12T00:42:51.304Z,1012.7
2017-07-12T00:43:50.380Z,1012.7
2017-07-12T00:44:49.577Z,1012.6
2017-07-12T00:45:48.901Z,1012.6
2017-07-12T00:46:48.471Z,1012.6
2017-07-12T00:47:47.785Z,1012.5
2017-07-12T00:48:46.838Z,1012.5
2017-07-12T00:49:46.172Z,1012.5
2017-07-12T00:50:45.763Z,1012.5
2017-07-12T00:51:44.714Z,1012.5
2017-07-12T00:52:15.101Z,1012.5
2017-07-12T00:52:45.477Z,1012.5
2017-07-12T00:53:15.739Z,1012.5
2017-07-12T00:53:46.129Z,1012.5
2017-07-12T00:54:16.509Z,1012.5
2017-07-12T00:54:47.136Z,1012.5
2017-07-12T00:55:17.531Z,1012.5
2017-07-12T00:55:48.166Z,1012.5
2017-07-12T00:56:18.416Z,1012.5
2017-07-12T00:56:48.976Z,1012.5
2017-07-12T00:57:19.235Z,1012.5
2017-07-12T00:58:40.067Z,1012.5
2017-07-12T00:59:39.393Z,1012.5
2017-07-12T01:00:38.462Z,1012.5
2017-07-12T01:01:37.783Z,1012.5
2017-07-12T01:02:37.115Z,1012.5
2017-07-12T01:03:36.575Z,1012.5
2017-07-12T01:04:35.885Z,1012.5
2017-07-12T01:05:34.963Z,1012.4
2017-07-12T01:06:34.298Z,1012.4
2017-07-12T01:07:33.634Z,1012.5
2017-07-12T01:08:33.082Z,1012.5
2017-07-12T01:09:32.277Z,1012.5
2017-07-12T01:10:31.477Z,1012.5
2017-07-12T01:11:31.052Z,1012.5
2017-07-12T01:12:30.373Z,1012.5
2017-07-12T01:13:29.704Z,1012.5
2017-07-12T01:14:28.894Z,1012.5
2017-07-12T01:15:28.095Z,1012.6
2017-07-12T01:16:27.296Z,1012.6
2017-07-12T01:17:27.004Z,1012.6
2017-07-12T01:18:26.081Z,1012.6
2017-07-12T01:19:25.401Z,1012.5
2017-07-12T01:20:24.529Z,1012.5
2017-07-12T01:21:23.980Z,1012.5
2017-07-12T01:22:23.444Z,1012.5
2017-07-12T01:23:22.631Z,1012.5
2017-07-12T01:24:21.696Z,1012.5
2017-07-12T01:25:21.265Z,1012.4
2017-07-12T01:25:51.511Z,1012.4
2017-07-12T01:27:19.979Z,1012.4
2017-07-12T01:28:19.037Z,1012.4
2017-07-12T01:29:18.221Z,1012.4
2017-07-12T01:30:17.418Z,1012.4
2017-07-12T01:31:16.997Z,1012.4
2017-07-12T01:32:16.445Z,1012.4
2017-07-12T01:33:15.649Z,1012.4
2017-07-12T01:34:14.854Z,1012.4
2017-07-12T01:35:14.305Z,1012.4
2017-07-12T01:36:13.559Z,1012.4
2017-07-12T01:37:12.454Z,1012.4
2017-07-12T01:38:11.779Z,1012.4
2017-07-12T01:39:11.342Z,1012.4
2017-07-12T01:40:10.803Z,1012.3
2017-07-12T01:41:09.870Z,1012.3
2017-07-12T01:42:09.083Z,1012.3
2017-07-12T01:43:08.538Z,1012.3
2017-07-12T01:44:07.739Z,1012.2
2017-07-12T01:45:07.193Z,1012.2
2017-07-12T01:46:06.522Z,1012.2
2017-07-12T01:47:05.724Z,1012.2
2017-07-12T01:48:04.784Z,1012.1
2017-07-12T01:49:04.106Z,1012.1
2017-07-12T01:50:03.308Z,1012.1
2017-07-12T01:51:02.635Z,1012.1
2017-07-12T01:51:33.142Z,1012.1
2017-07-12T01:52:03.653Z,1012.1
2017-07-12T01:53:01.353Z,1012.3
2017-07-12T01:54:00.553Z,1012.2
2017-07-12T01:55:00.004Z,1012.2
2017-07-12T01:55:59.211Z,1012.2
2017-07-12T01:56:58.525Z,1012.2
2017-07-12T01:57:57.977Z,1012.2
2017-07-12T01:58:56.926Z,1012.2
2017-07-12T01:59:56.378Z,1012.2
2017-07-12T02:00:55.578Z,1012.2
2017-07-12T02:01:26.079Z,1012.2
2017-07-12T02:01:56.338Z,1012.2
2017-07-12T02:02:26.713Z,1012.2
2017-07-12T02:02:57.222Z,1012.2
2017-07-12T02:03:53.781Z,1012.2
2017-07-12T02:04:52.857Z,1012.2
2017-07-12T02:05:52.172Z,1012.2
2017-07-12T02:06:51.239Z,1012.1
2017-07-12T02:07:50.888Z,1012.1
2017-07-12T02:08:49.959Z,1012.1
2017-07-12T02:09:49.160Z,1012.1
2017-07-12T02:10:48.723Z,1012.2
2017-07-12T02:11:47.671Z,1012.2
2017-07-12T02:12:47.126Z,1012.1
2017-07-12T02:13:46.321Z,1012.2
2017-07-12T02:14:45.510Z,1012.2
2017-07-12T02:15:44.842Z,1012.1
2017-07-12T02:17:43.812Z,1012.1
2017-07-12T02:18:43.133Z,1012.1
2017-07-12T02:19:41.958Z,1012
2017-07-12T02:20:41.661Z,1012
2017-07-12T02:21:12.169Z,1012
2017-07-12T02:21:42.615Z,1012.1
2017-07-12T02:22:40.174Z,1012.1
2017-07-12T02:24:38.698Z,1012.1
2017-07-12T02:25:37.670Z,1012.1
2017-07-12T02:26:37.369Z,1012.1
2017-07-12T02:27:36.324Z,1012.1
2017-07-12T02:28:35.894Z,1012.1
2017-07-12T02:29:34.973Z,1012.1
2017-07-12T02:30:34.488Z,1012.1
2017-07-12T02:31:33.688Z,1012.1
2017-07-12T02:32:33.015Z,1012.1
2017-07-12T02:33:32.209Z,1012.1
2017-07-12T02:34:31.404Z,1012.1
2017-07-12T02:35:30.675Z,1012.1
2017-07-12T02:36:29.864Z,1012.1
2017-07-12T02:37:29.182Z,1012
2017-07-12T02:38:28.754Z,1012.1
2017-07-12T02:39:27.950Z,1012.1
2017-07-12T02:40:27.019Z,1012.1
2017-07-12T02:41:26.715Z,1012.1
2017-07-12T02:41:57.217Z,1012.1
2017-07-12T02:42:27.860Z,1012.1
2017-07-12T02:42:58.561Z,1012.1
2017-07-12T02:43:29.077Z,1012
2017-07-12T02:43:59.707Z,1012
2017-07-12T02:45:23.828Z,1012
2017-07-12T02:46:22.916Z,1012
2017-07-12T02:47:22.243Z,1012
2017-07-12T02:48:21.694Z,1012
2017-07-12T02:49:20.890Z,1012
2017-07-12T02:50:27.261Z,1012.1
2017-07-12T02:51:19.162Z,1012
2017-07-12T02:52:18.605Z,1012
2017-07-12T02:53:17.794Z,1012
2017-07-12T02:54:17.112Z,1012
2017-07-12T02:56:15.703Z,1012
2017-07-12T02:57:15.163Z,1011.9
2017-07-12T02:58:14.238Z,1012
2017-07-12T02:59:13.681Z,1011.9
2017-07-12T03:00:13.062Z,1011.9
2017-07-12T03:01:12.135Z,1011.9
2017-07-12T03:01:42.623Z,1011.9
2017-07-12T03:03:10.690Z,1011.9
2017-07-12T03:04:10.136Z,1011.9
2017-07-12T03:06:08.590Z,1011.9
2017-07-12T03:07:07.779Z,1011.8
2017-07-12T03:08:07.081Z,1011.8
2017-07-12T03:09:06.645Z,1011.9
2017-07-12T03:10:05.697Z,1011.9
2017-07-12T03:11:04.889Z,1011.9
2017-07-12T03:12:04.457Z,1011.9
2017-07-12T03:12:34.982Z,1011.9
2017-07-12T03:13:05.228Z,1011.8
2017-07-12T03:13:35.478Z,1011.8
2017-07-12T03:14:05.854Z,1011.9
2017-07-12T03:14:36.487Z,1011.9
2017-07-12T03:16:01.482Z,1011.9
2017-07-12T03:17:00.917Z,1011.9
2017-07-12T03:17:59.857Z,1011.9
2017-07-12T03:18:59.095Z,1011.9
2017-07-12T03:19:58.532Z,1011.9
2017-07-12T03:20:57.725Z,1011.9
2017-07-12T03:21:56.919Z,1011.9
2017-07-12T03:22:56.223Z,1011.9
2017-07-12T03:23:55.852Z,1011.9
2017-07-12T03:24:54.924Z,1011.9
2017-07-12T03:25:53.991Z,1011.8
2017-07-12T03:26:53.699Z,1011.8
2017-07-12T03:27:52.647Z,1011.9
2017-07-12T03:28:51.961Z,1011.9
2017-07-12T03:29:51.417Z,1011.9
2017-07-12T03:30:50.472Z,1011.9
2017-07-12T03:31:49.778Z,1011.8
2017-07-12T03:32:49.213Z,1011.9
2017-07-12T03:33:48.401Z,1011.8
2017-07-12T03:34:47.840Z,1011.8
2017-07-12T03:35:46.910Z,1011.8
2017-07-12T03:36:46.359Z,1011.8
2017-07-12T03:37:45.543Z,1011.8
2017-07-12T03:38:44.669Z,1011.9
2017-07-12T03:39:44.223Z,1011.8
2017-07-12T03:40:43.429Z,1011.8
2017-07-12T03:42:42.019Z,1011.8
2017-07-12T03:43:41.455Z,1011.8
2017-07-12T03:44:40.640Z,1011.8
2017-07-12T03:45:39.698Z,1011.8
2017-07-12T03:46:39.258Z,1011.9
2017-07-12T03:47:38.444Z,1011.9
2017-07-12T03:48:37.894Z,1011.8
2017-07-12T03:49:37.067Z,1011.8
2017-07-12T03:50:07.503Z,1011.8
2017-07-12T03:50:38.136Z,1011.8
2017-07-12T03:51:08.387Z,1011.8
2017-07-12T03:51:38.639Z,1011.8
2017-07-12T03:52:34.557Z,1011.8
2017-07-12T03:53:34.249Z,1011.8
2017-07-12T03:54:33.431Z,1011.8
2017-07-12T03:55:32.865Z,1011.8
2017-07-12T03:56:31.809Z,1011.8
2017-07-12T03:57:31.368Z,1011.8
2017-07-12T03:58:30.431Z,1011.8
2017-07-12T03:59:29.987Z,1011.8
2017-07-12T04:00:28.806Z,1011.8
2017-07-12T04:01:28.505Z,1011.8
2017-07-12T04:02:27.815Z,1011.9
2017-07-12T04:03:26.622Z,1011.8
2017-07-12T04:04:26.197Z,1011.8
2017-07-12T04:05:25.268Z,1011.8
2017-07-12T04:06:24.961Z,1011.8
2017-07-12T04:07:24.033Z,1011.8
2017-07-12T04:08:23.350Z,1011.8
2017-07-12T04:09:22.420Z,1011.8
2017-07-12T04:09:52.915Z,1011.8
2017-07-12T04:11:21.355Z,1011.8
2017-07-12T04:12:20.420Z,1011.8
2017-07-12T04:13:19.504Z,1011.8
2017-07-12T04:14:18.815Z,1011.7
2017-07-12T04:15:18.011Z,1011.8
2017-07-12T04:16:17.329Z,1011.7
2017-07-12T04:17:16.935Z,1011.7
2017-07-12T04:18:16.221Z,1011.7
2017-07-12T04:19:15.409Z,1011.7
2017-07-12T04:20:14.597Z,1011.7
2017-07-12T04:21:14.157Z,1011.7
2017-07-12T04:21:44.416Z,1011.7
2017-07-12T04:22:14.790Z,1011.7
2017-07-12T04:22:45.291Z,1011.7
2017-07-12T04:23:15.658Z,1011.7
2017-07-12T04:23:46.030Z,1011.7
2017-07-12T04:25:11.259Z,1011.7
2017-07-12T04:26:10.202Z,1011.7
2017-07-12T04:27:09.645Z,1011.7
2017-07-12T04:28:08.712Z,1011.7
2017-07-12T04:29:08.152Z,1011.7
2017-07-12T04:30:07.222Z,1011.7
2017-07-12T04:31:06.912Z,1011.7
2017-07-12T04:32:06.091Z,1011.7
2017-07-12T04:33:05.407Z,1011.7
2017-07-12T04:34:04.605Z,1011.7
2017-07-12T04:35:04.048Z,1011.7
2017-07-12T04:36:03.244Z,1011.7
2017-07-12T04:37:02.421Z,1011.7
2017-07-12T04:38:01.850Z,1011.7
2017-07-12T04:39:01.045Z,1011.6
2017-07-12T04:40:00.234Z,1011.6
2017-07-12T04:40:59.411Z,1011.6
2017-07-12T04:41:58.967Z,1011.6
2017-07-12T04:42:58.030Z,1011.7
2017-07-12T04:43:57.114Z,1011.6
2017-07-12T04:44:56.815Z,1011.6
2017-07-12T04:45:56.125Z,1011.6
2017-07-12T04:46:54.932Z,1011.6
2017-07-12T04:47:54.631Z,1011.6
2017-07-12T04:48:53.948Z,1011.5
2017-07-12T04:49:52.868Z,1011.6
2017-07-12T04:50:52.475Z,1011.5
2017-07-12T04:51:51.601Z,1011.5
2017-07-12T04:52:50.919Z,1011.5
2017-07-12T04:53:50.238Z,1011.5
2017-07-12T04:54:49.546Z,1011.5
2017-07-12T04:55:48.865Z,1011.5
2017-07-12T04:56:47.806Z,1011.5
2017-07-12T04:57:47.124Z,1011.5
2017-07-12T04:58:46.377Z,1011.5
2017-07-12T04:59:45.562Z,1011.4
2017-07-12T05:00:45.258Z,1011.4
2017-07-12T05:01:15.634Z,1011.4
2017-07-12T05:01:46.018Z,1011.4
2017-07-12T05:02:16.279Z,1011.4
2017-07-12T05:02:46.650Z,1011.4
2017-07-12T05:03:16.964Z,1011.4
2017-07-12T05:05:41.597Z,1011.3
2017-07-12T05:06:40.788Z,1011.3
2017-07-12T05:07:40.248Z,1011.3
2017-07-12T05:08:39.186Z,1011.3
2017-07-12T05:09:38.764Z,1011.3
2017-07-12T05:10:37.968Z,1011.2
2017-07-12T05:11:37.158Z,1011.3
2017-07-12T05:12:36.726Z,1011.3
2017-07-12T05:13:35.923Z,1011.3
2017-07-12T05:14:35.119Z,1011.2
2017-07-12T05:15:34.615Z,1011.3
2017-07-12T05:16:33.679Z,1011.3
2017-07-12T05:17:32.986Z,1011.3
2017-07-12T05:18:32.161Z,1011.3
2017-07-12T05:19:31.616Z,1011.2
2017-07-12T05:20:31.066Z,1011.3
2017-07-12T05:21:30.126Z,1011.3
2017-07-12T05:22:29.305Z,1011.3
2017-07-12T05:23:28.489Z,1011.3
2017-07-12T05:24:28.055Z,1011.3
2017-07-12T05:25:27.370Z,1011.3
2017-07-12T05:26:26.569Z,1011.3
2017-07-12T05:28:25.389Z,1011.3
2017-07-12T05:29:24.329Z,1011.3
2017-07-12T05:30:23.774Z,1011.3
2017-07-12T05:31:23.089Z,1011.3
2017-07-12T05:32:22.654Z,1011.3
2017-07-12T05:34:20.987Z,1011.2
2017-07-12T05:35:20.418Z,1011.3
2017-07-12T05:36:19.607Z,1011.3
2017-07-12T05:37:19.050Z,1011.2
2017-07-12T05:39:17.633Z,1011.3
2017-07-12T05:40:16.830Z,1011.3
2017-07-12T05:41:16.152Z,1011.3
2017-07-12T05:42:15.337Z,1011.3
2017-07-12T05:43:14.911Z,1011.3
2017-07-12T05:44:14.246Z,1011.2
2017-07-12T05:45:13.575Z,1011.2
2017-07-12T05:46:12.651Z,1011.2
2017-07-12T05:47:11.989Z,1011.3
2017-07-12T05:48:11.305Z,1011.3
2017-07-12T05:50:10.147Z,1011.3
2017-07-12T05:51:09.453Z,1011.3
2017-07-12T05:52:08.320Z,1011.3
2017-07-12T05:53:07.886Z,1011.3
2017-07-12T05:54:07.076Z,1011.3
2017-07-12T05:55:06.515Z,1011.3
2017-07-12T05:56:05.700Z,1011.3
2017-07-12T05:57:04.893Z,1011.2
2017-07-12T05:58:04.464Z,1011.2
2017-07-12T05:59:03.649Z,1011.3
2017-07-12T06:00:03.079Z,1011.3
2017-07-12T06:01:02.150Z,1011.3
2017-07-12T06:02:01.717Z,1011.3
2017-07-12T06:03:00.899Z,1011.3
2017-07-12T06:04:00.461Z,1011.2
2017-07-12T06:04:59.652Z,1011.2
2017-07-12T06:05:58.792Z,1011.2
2017-07-12T06:06:57.985Z,1011.2
2017-07-12T06:07:57.670Z,1011.2
2017-07-12T06:08:27.918Z,1011.2
2017-07-12T06:08:58.545Z,1011.2
2017-07-12T06:09:28.787Z,1011.2
2017-07-12T06:09:59.411Z,1011.2
2017-07-12T06:10:29.909Z,1011.2
2017-07-12T06:11:54.641Z,1011.2
2017-07-12T06:12:54.218Z,1011.1
2017-07-12T06:13:53.277Z,1011.1
2017-07-12T06:14:52.937Z,1011.1
2017-07-12T06:15:52.013Z,1011.1
2017-07-12T06:16:51.454Z,1011.1
2017-07-12T06:17:50.768Z,1011.1
2017-07-12T06:18:50.091Z,1011.1
2017-07-12T06:19:49.283Z,1011.2
2017-07-12T06:20:48.477Z,1011.2
2017-07-12T06:21:47.914Z,1011.1
2017-07-12T06:23:46.491Z,1011.1
2017-07-12T06:24:45.791Z,1011.1
2017-07-12T06:25:45.471Z,1011.1
2017-07-12T06:26:44.660Z,1011.2
2017-07-12T06:27:43.719Z,1011.1
2017-07-12T06:28:43.291Z,1011.1
2017-07-12T06:29:42.481Z,1011.1
2017-07-12T06:30:41.926Z,1011.1
2017-07-12T06:31:41.244Z,1011
2017-07-12T06:33:40.084Z,1011
2017-07-12T06:34:39.013Z,1011
2017-07-12T06:35:38.590Z,1011
2017-07-12T06:36:37.902Z,1011
2017-07-12T06:37:36.965Z,1010.9
2017-07-12T06:38:36.593Z,1010.9
2017-07-12T06:39:35.782Z,1010.9
2017-07-12T06:40:34.970Z,1010.9
2017-07-12T06:41:34.429Z,1010.9
2017-07-12T06:42:33.986Z,1010.9
2017-07-12T06:43:32.921Z,1010.9
2017-07-12T06:44:32.492Z,1010.9
2017-07-12T06:45:31.883Z,1010.9
2017-07-12T06:46:31.319Z,1010.9
2017-07-12T06:47:30.268Z,1010.9
2017-07-12T06:48:29.702Z,1010.8
2017-07-12T06:49:29.142Z,1010.9
2017-07-12T06:49:59.396Z,1010.9
2017-07-12T06:51:27.764Z,1010.8
2017-07-12T06:52:27.087Z,1010.8
2017-07-12T06:53:26.532Z,1010.9
2017-07-12T06:54:25.593Z,1010.8
2017-07-12T06:55:25.026Z,1010.8
2017-07-12T06:56:24.580Z,1010.9
2017-07-12T06:57:23.894Z,1010.9
2017-07-12T06:58:23.344Z,1010.8
2017-07-12T06:59:22.671Z,1010.8
2017-07-12T07:00:21.739Z,1010.8
2017-07-12T07:01:21.173Z,1010.8
2017-07-12T07:02:20.607Z,1010.9
2017-07-12T07:02:51.244Z,1010.9
2017-07-12T07:03:21.628Z,1010.8
2017-07-12T07:04:19.307Z,1010.8
2017-07-12T07:05:18.504Z,1010.8
2017-07-12T07:06:17.838Z,1010.8
2017-07-12T07:07:17.278Z,1010.8
2017-07-12T07:08:16.839Z,1010.8
2017-07-12T07:09:16.166Z,1010.8
2017-07-12T07:10:15.258Z,1010.8
2017-07-12T07:11:14.702Z,1010.8
2017-07-12T07:12:14.140Z,1010.7
2017-07-12T07:13:13.590Z,1010.7
2017-07-12T07:14:12.537Z,1010.6
2017-07-12T07:15:12.105Z,1010.7
2017-07-12T07:16:11.286Z,1010.7
2017-07-12T07:17:10.654Z,1010.6
2017-07-12T07:18:09.837Z,1010.6
2017-07-12T07:19:09.662Z,1010.6
2017-07-12T07:20:08.730Z,1010.6
2017-07-12T07:21:08.051Z,1010.5
2017-07-12T07:22:07.621Z,1010.5
2017-07-12T07:22:38.111Z,1010.5
2017-07-12T07:23:08.361Z,1010.5
2017-07-12T07:24:06.162Z,1010.6
2017-07-12T07:25:05.484Z,1010.6
2017-07-12T07:26:05.058Z,1010.6
2017-07-12T07:27:03.996Z,1010.6
2017-07-12T07:28:03.760Z,1010.6
2017-07-12T07:29:02.961Z,1010.5
2017-07-12T07:30:02.275Z,1010.5
2017-07-12T07:31:01.835Z,1010.5
2017-07-12T07:32:01.015Z,1010.5
2017-07-12T07:33:00.137Z,1010.5
2017-07-12T07:33:59.445Z,1010.5
2017-07-12T07:34:59.134Z,1010.6
2017-07-12T07:35:58.194Z,1010.6
2017-07-12T07:36:57.624Z,1010.5
2017-07-12T07:37:57.198Z,1010.4
2017-07-12T07:38:56.505Z,1010.4
2017-07-12T07:39:55.960Z,1010.4
2017-07-12T07:40:55.150Z,1010.4
2017-07-12T07:41:54.716Z,1010.4
2017-07-12T07:42:54.034Z,1010.4
2017-07-12T07:43:53.293Z,1010.4
2017-07-12T07:44:52.799Z,1010.4
2017-07-12T07:45:52.110Z,1010.4
2017-07-12T07:46:51.164Z,1010.4
2017-07-12T07:47:50.849Z,1010.4
2017-07-12T07:48:50.159Z,1010.3
2017-07-12T07:49:49.469Z,1010.2
2017-07-12T07:50:48.785Z,1010.3
2017-07-12T07:51:48.358Z,1010.3
2017-07-12T07:52:47.302Z,1010.3
2017-07-12T07:53:46.760Z,1010.3
2017-07-12T07:54:46.218Z,1010.3
2017-07-12T07:55:45.778Z,1010.3
2017-07-12T07:56:45.088Z,1010.3
2017-07-12T07:57:44.147Z,1010.3
2017-07-12T07:58:14.402Z,1010.3
2017-07-12T07:58:44.646Z,1010.3
2017-07-12T07:59:15.279Z,1010.3
2017-07-12T07:59:45.907Z,1010.2
2017-07-12T08:00:16.168Z,1010.2
2017-07-12T08:01:41.773Z,1010.2
2017-07-12T08:02:41.339Z,1010.3
2017-07-12T08:03:40.403Z,1010.3
2017-07-12T08:04:39.711Z,1010.3
2017-07-12T08:05:39.174Z,1010.2
2017-07-12T08:06:38.496Z,1010.2
2017-07-12T08:07:38.062Z,1010.1
2017-07-12T08:08:37.631Z,1010.2
2017-07-12T08:09:36.949Z,1010.2
2017-07-12T08:10:36.146Z,1010.1
2017-07-12T08:11:35.349Z,1010.1
2017-07-12T08:12:34.914Z,1010.1
2017-07-12T08:13:34.120Z,1010.1
2017-07-12T08:14:33.813Z,1010.1
2017-07-12T08:15:33.010Z,1010
2017-07-12T08:16:32.315Z,1010
2017-07-12T08:17:31.505Z,1010
2017-07-12T08:18:01.762Z,1010
2017-07-12T08:18:31.998Z,1010
2017-07-12T08:19:02.694Z,1010
2017-07-12T08:20:30.074Z,1010.1
2017-07-12T08:21:28.993Z,1010
2017-07-12T08:22:28.559Z,1010
2017-07-12T08:23:27.815Z,1010
2017-07-12T08:24:27.503Z,1010
2017-07-12T08:25:26.561Z,1010
2017-07-12T08:26:26.122Z,1010
2017-07-12T08:27:25.694Z,1010
2017-07-12T08:28:24.644Z,1010
2017-07-12T08:28:54.900Z,1010
2017-07-12T08:29:25.278Z,1009.9
2017-07-12T08:29:55.546Z,1009.9
2017-07-12T08:30:25.914Z,1009.9
2017-07-12T08:30:56.412Z,1009.9
2017-07-12T08:31:26.673Z,1010
2017-07-12T08:31:57.057Z,1010
2017-07-12T08:33:21.789Z,1009.9
2017-07-12T08:34:21.235Z,1009.9
2017-07-12T08:35:20.672Z,1009.9
2017-07-12T08:36:20.041Z,1009.9
2017-07-12T08:37:19.094Z,1009.9
2017-07-12T08:38:18.782Z,1009.9
2017-07-12T08:39:18.219Z,1009.9
2017-07-12T08:40:17.280Z,1009.9
2017-07-12T08:41:16.721Z,1009.9
2017-07-12T08:42:16.281Z,1009.8
2017-07-12T08:43:15.479Z,1009.8
2017-07-12T08:44:14.928Z,1009.9
2017-07-12T08:45:14.233Z,1009.8
2017-07-12T08:46:13.557Z,1009.8
2017-07-12T08:47:13.000Z,1009.8
2017-07-12T08:48:12.314Z,1009.8
2017-07-12T08:49:11.637Z,1009.8
2017-07-12T08:50:11.072Z,1009.8
2017-07-12T08:51:10.512Z,1009.8
2017-07-12T08:53:09.104Z,1009.8
2017-07-12T08:54:08.540Z,1009.7
2017-07-12T08:55:07.978Z,1009.7
2017-07-12T08:56:07.424Z,1009.7
2017-07-12T08:57:06.875Z,1009.7
2017-07-12T08:58:06.194Z,1009.7
2017-07-12T08:59:05.379Z,1009.7
2017-07-12T09:00:05.188Z,1009.7
2017-07-12T09:01:04.634Z,1009.8
2017-07-12T09:02:03.578Z,1009.8
2017-07-12T09:03:03.011Z,1009.8
2017-07-12T09:04:02.311Z,1009.8
2017-07-12T09:05:01.741Z,1009.8
2017-07-12T09:07:00.946Z,1009.8
2017-07-12T09:08:00.146Z,1009.8
2017-07-12T09:08:59.330Z,1009.8
2017-07-12T09:09:58.645Z,1009.8
2017-07-12T09:10:58.285Z,1009.7
2017-07-12T09:11:57.856Z,1009.7
2017-07-12T09:12:28.232Z,1009.7
2017-07-12T09:12:58.471Z,1009.7
2017-07-12T09:13:56.548Z,1009.7
2017-07-12T09:14:55.975Z,1009.7
2017-07-12T09:15:55.289Z,1009.7
2017-07-12T09:16:54.480Z,1009.7
2017-07-12T09:17:54.058Z,1009.7
2017-07-12T09:18:53.373Z,1009.6
2017-07-12T09:19:52.876Z,1009.7
2017-07-12T09:20:52.173Z,1009.6
2017-07-12T09:21:51.619Z,1009.7
2017-07-12T09:22:50.705Z,1009.6
2017-07-12T09:23:50.280Z,1009.7
2017-07-12T09:33:44.322Z,1009.7
2017-07-12T09:34:43.499Z,1009.7
2017-07-12T09:35:42.807Z,1009.6
2017-07-12T09:36:42.491Z,1009.7
2017-07-12T09:37:41.704Z,1009.6
2017-07-12T09:38:41.351Z,1009.6
2017-07-12T09:39:40.678Z,1009.6
2017-07-12T09:40:40.137Z,1009.6
2017-07-12T09:41:39.455Z,1009.5
2017-07-12T09:42:38.528Z,1009.6
2017-07-12T09:43:37.978Z,1009.6
2017-07-12T09:45:37.065Z,1009.6
2017-07-12T09:46:36.380Z,1009.5
2017-07-12T09:47:35.682Z,1009.5
2017-07-12T09:48:35.134Z,1009.5
2017-07-12T09:49:34.450Z,1009.6
2017-07-12T09:50:34.011Z,1009.6
2017-07-12T09:51:33.462Z,1009.5
2017-07-12T09:52:32.653Z,1009.5
2017-07-12T09:53:32.209Z,1009.5
2017-07-12T09:54:31.385Z,1009.5
2017-07-12T09:55:30.573Z,1009.4
2017-07-12T09:56:30.146Z,1009.5
2017-07-12T09:57:29.332Z,1009.5
2017-07-12T09:58:28.910Z,1009.5
2017-07-12T09:59:28.349Z,1009.4
2017-07-12T10:00:27.916Z,1009.5
2017-07-12T10:01:27.113Z,1009.4
2017-07-12T10:02:26.681Z,1009.4
2017-07-12T10:03:26.014Z,1009.4
2017-07-12T10:04:25.451Z,1009.4
2017-07-12T10:05:24.521Z,1009.4
2017-07-12T10:06:23.843Z,1009.4
2017-07-12T10:07:23.659Z,1009.4
2017-07-12T10:08:22.600Z,1009.3
2017-07-12T10:09:22.168Z,1009.3
2017-07-12T10:10:21.485Z,1009.3
2017-07-12T10:11:21.046Z,1009.4
2017-07-12T10:12:20.110Z,1009.3
2017-07-12T10:13:19.922Z,1009.3
2017-07-12T10:14:18.854Z,1009.4
2017-07-12T10:15:18.550Z,1009.3
2017-07-12T10:16:17.988Z,1009.4
2017-07-12T10:17:17.054Z,1009.3
2017-07-12T10:17:47.682Z,1009.3
2017-07-12T10:18:17.933Z,1009.3
2017-07-12T10:18:48.380Z,1009.3
2017-07-12T10:19:18.751Z,1009.4
2017-07-12T10:19:48.991Z,1009.4
2017-07-12T10:20:19.370Z,1009.4
2017-07-12T10:20:49.747Z,1009.4
2017-07-12T10:21:20.111Z,1009.4
2017-07-12T10:21:50.353Z,1009.4
2017-07-12T10:22:20.608Z,1009.4
2017-07-12T10:22:51.236Z,1009.4
2017-07-12T10:24:13.071Z,1009.4
2017-07-12T10:25:12.493Z,1009.4
2017-07-12T10:26:11.673Z,1009.4
2017-07-12T10:27:10.989Z,1009.4
2017-07-12T10:28:10.428Z,1009.4
2017-07-12T10:29:09.873Z,1009.4
2017-07-12T10:30:09.441Z,1009.4
2017-07-12T10:31:08.698Z,1009.4
2017-07-12T10:32:08.136Z,1009.4
2017-07-12T10:33:07.202Z,1009.4
2017-07-12T10:34:06.506Z,1009.4
2017-07-12T10:35:06.199Z,1009.4
2017-07-12T10:36:05.407Z,1009.4
2017-07-12T10:37:04.592Z,1009.4
2017-07-12T10:39:03.432Z,1009.3
2017-07-12T10:40:03.117Z,1009.3
2017-07-12T10:41:02.193Z,1009.3
2017-07-12T10:42:01.635Z,1009.3
2017-07-12T10:43:01.196Z,1009.3
2017-07-12T10:44:00.388Z,1009.3
2017-07-12T10:45:59.092Z,1009.3
2017-07-12T10:46:58.334Z,1009.2
2017-07-12T10:47:57.792Z,1009.2
2017-07-12T10:48:57.246Z,1009.2
2017-07-12T10:49:56.697Z,1009.2
2017-07-12T10:50:56.015Z,1009.2
2017-07-12T10:51:26.273Z,1009.2
2017-07-12T10:51:56.535Z,1009.2
2017-07-12T10:52:26.905Z,1009.2
2017-07-12T10:52:57.400Z,1009.2
2017-07-12T10:53:27.889Z,1009.2
2017-07-12T10:53:58.521Z,1009.1
2017-07-12T10:54:53.249Z,1009.2
2017-07-12T10:55:52.736Z,1009.2
2017-07-12T10:56:52.047Z,1009.1
2017-07-12T10:57:51.750Z,1009.2
2017-07-12T10:58:51.196Z,1009.1
2017-07-12T10:59:50.378Z,1009.1
2017-07-12T11:00:49.687Z,1009.1
2017-07-12T11:01:49.008Z,1009.1
2017-07-12T11:02:48.565Z,1009.2
2017-07-12T11:03:47.755Z,1009.1
2017-07-12T11:04:47.192Z,1009.2
2017-07-12T11:05:46.261Z,1009.2
2017-07-12T11:06:45.714Z,1009.2
2017-07-12T11:07:45.032Z,1009.2
2017-07-12T11:08:44.367Z,1009.2
2017-07-12T11:09:43.817Z,1009.2
2017-07-12T11:10:43.132Z,1009.3
2017-07-12T11:11:42.452Z,1009.3
2017-07-12T11:12:41.891Z,1009.3
2017-07-12T11:13:41.580Z,1009.2
2017-07-12T11:14:40.897Z,1009.3
2017-07-12T11:15:40.226Z,1009.3
2017-07-12T11:16:39.532Z,1009.3
2017-07-12T11:17:38.729Z,1009.3
2017-07-12T11:18:38.298Z,1009.3
2017-07-12T11:19:37.745Z,1009.3
2017-07-12T11:20:36.928Z,1009.2
2017-07-12T11:21:36.358Z,1009.3
2017-07-12T11:22:35.545Z,1009.2
2017-07-12T11:23:35.172Z,1009.3
2017-07-12T11:24:34.231Z,1009.3
2017-07-12T11:25:33.922Z,1009.3
2017-07-12T11:26:32.870Z,1009.3
2017-07-12T11:27:32.305Z,1009.2
2017-07-12T11:28:02.798Z,1009.2
2017-07-12T11:28:33.297Z,1009.3
2017-07-12T11:29:03.916Z,1009.3
2017-07-12T11:29:34.303Z,1009.3
2017-07-12T11:30:04.927Z,1009.3
2017-07-12T11:30:35.420Z,1009.3
2017-07-12T11:31:29.946Z,1009.3
2017-07-12T11:32:29.245Z,1009.3
2017-07-12T11:33:28.430Z,1009.3
2017-07-12T11:34:27.605Z,1009.3
2017-07-12T11:35:27.427Z,1009.3
2017-07-12T11:36:26.741Z,1009.3
2017-07-12T11:37:25.832Z,1009.4
2017-07-12T11:38:25.151Z,1009.4
2017-07-12T11:39:24.593Z,1009.3
2017-07-12T11:40:24.161Z,1009.3
2017-07-12T11:41:23.216Z,1009.3
2017-07-12T11:43:22.166Z,1009.4
2017-07-12T11:44:21.354Z,1009.4
2017-07-12T11:45:20.680Z,1009.4
2017-07-12T11:46:19.868Z,1009.3
2017-07-12T11:47:19.433Z,1009.4
2017-07-12T11:47:50.057Z,1009.4
2017-07-12T11:48:20.312Z,1009.3
2017-07-12T11:49:17.980Z,1009.3
2017-07-12T11:50:17.305Z,1009.3
2017-07-12T11:51:16.751Z,1009.3
2017-07-12T11:52:15.940Z,1009.3
2017-07-12T11:53:15.258Z,1009.3
2017-07-12T11:54:14.692Z,1009.3
2017-07-12T11:55:13.869Z,1009.2
2017-07-12T11:56:13.320Z,1009.2
2017-07-12T11:57:12.634Z,1009.1
2017-07-12T11:58:12.072Z,1009.1
2017-07-12T11:59:11.393Z,1009.1
2017-07-12T12:00:10.702Z,1009
2017-07-12T12:01:09.880Z,1008.9
2017-07-12T12:02:09.195Z,1008.9
2017-07-12T12:03:08.894Z,1008.8
2017-07-12T12:04:07.969Z,1008.8
2017-07-12T12:05:07.303Z,1008.8
2017-07-12T12:06:06.618Z,1008.7
2017-07-12T12:07:06.059Z,1008.8
2017-07-12T12:08:05.257Z,1008.8